Pagrindinis puslapis
METAR-TAF:

METAR-TAF

Oro uostai :

Rio Brankas, Akrė, Brazilija

platuma: 10-00S, ilguma: 067-48W, Aukštis: 142 m

Dabartinis oras

Ataskaita buvo paskelbta 21 minutes, ne 03:00 UTC
Vėjas 4 kt iš Šiaurės
Temperatūra 26°C
Drėgmė 100%
Slėgis 1010 hPa
Matomumas 10 km arba daugiau
nėra debesų žemiau 1500 m ir nėra kamuolinių lietaus debesų

METAR: SBRB 170300Z 35004KT CAVOK 26/26 Q1010

Laikas: 22:21 (03:21 UTC)

Prognozė

Ataskaita buvo paskelbta 5 valandos ir 51 minutes, ne 21:30 UTC
Prognozė galioja nuo 17 metu 00 UTC su 17 metu 12 UTC
Vėjas 5 kt iš Šiaurės/Šiaurės Vakarų
Matomumas: 7000 m
Išsisklaidę debesys ne aukštis 2000 ft
Tapsmas
nuo 17 metu 00 UTC su 17 metu 02 UTC
Vėjas 5 kt iš Šiaurės Vakarų
Tapsmas
nuo 17 metu 09 UTC su 17 metu 11 UTC
Vėjas 5 kt iš Šiaurės/Šiaurės Rytų

TAF: SBRB 162130Z 1700/1712 34005KT 7000 SCT020 TN24/1707Z TX26/1712Z BECMG 1700/1702 32005KT BECMG 1709/1711 02005KT RMK PGW

Orai ataskaitas ir orų prognozės (METAR, TAF).

turimą stotys yra geltonos ir raudonos taškus žemėlapyje.

Perkelti pele per norėdami pamatyti stoties vardą.

Tada spustelėkite, norėdami matyti oro stebėjimo ir prognozės.

Norėdami pakeisti žemėlapį: spustelėkite ant žalios mygtukų su juodo kryžiaus žemyn,; žalią mygtuką su brūkšneliu, jei norite nutolinti; arba žalių rodyklių gretimoms žemėlapius.


METAR-TAF: